createdAt,value
2017-11-27T00:09:28.000Z,1013.295
2017-11-27T00:19:28.000Z,1013.216
2017-11-27T00:29:28.000Z,1013.16
2017-11-27T00:39:28.000Z,1013.253
2017-11-27T00:49:28.000Z,1013.102
2017-11-27T00:59:28.000Z,1012.986
2017-11-27T01:09:28.000Z,1012.935
2017-11-27T01:19:28.000Z,1013.006
2017-11-27T01:29:29.000Z,1012.969
2017-11-27T01:39:29.000Z,1012.956
2017-11-27T01:49:29.000Z,1013.063
2017-11-27T01:59:29.000Z,1012.932
2017-11-27T02:09:29.000Z,1012.827
2017-11-27T02:19:29.000Z,1012.781
2017-11-27T02:29:29.000Z,1012.607
2017-11-27T02:39:29.000Z,1012.522
2017-11-27T02:49:32.000Z,1012.464
2017-11-27T02:59:29.000Z,1012.482
2017-11-27T03:09:29.000Z,1012.27
2017-11-27T03:19:29.000Z,1012.12
2017-11-27T03:29:29.000Z,1011.951
2017-11-27T03:39:29.000Z,1011.905
2017-11-27T03:49:29.000Z,1011.795
2017-11-27T03:59:29.000Z,1011.705
2017-11-27T04:09:29.000Z,1011.572
2017-11-27T04:19:31.000Z,1011.484
2017-11-27T04:29:29.000Z,1011.327
2017-11-27T04:39:29.000Z,1011.155
2017-11-27T04:49:29.000Z,1011.114
2017-11-27T04:59:29.000Z,1010.98
2017-11-27T05:09:29.000Z,1010.898
2017-11-27T05:19:29.000Z,1010.747
2017-11-27T05:29:29.000Z,1010.609
2017-11-27T05:39:33.000Z,1010.453
2017-11-27T05:49:29.000Z,1010.272
2017-11-27T05:59:29.000Z,1010.184
2017-11-27T06:09:29.000Z,1009.892
2017-11-27T06:19:29.000Z,1009.747
2017-11-27T06:29:29.000Z,1009.475
2017-11-27T06:39:29.000Z,1009.292
2017-11-27T06:49:29.000Z,1009.2
2017-11-27T06:59:29.000Z,1008.896
2017-11-27T07:09:29.000Z,1008.744
2017-11-27T07:19:29.000Z,1008.639
2017-11-27T07:29:29.000Z,1008.385
2017-11-27T07:39:29.000Z,1008.341
2017-11-27T07:49:31.000Z,1008.262
2017-11-27T07:59:29.000Z,1008.031
2017-11-27T08:09:29.000Z,1007.819
2017-11-27T08:19:29.000Z,1007.499
2017-11-27T08:29:29.000Z,1007.372
2017-11-27T08:39:29.000Z,1007.236
2017-11-27T08:49:29.000Z,1006.999
2017-11-27T08:59:29.000Z,1006.778
2017-11-27T09:09:29.000Z,1006.534
2017-11-27T09:19:29.000Z,1006.412
2017-11-27T09:29:29.000Z,1006.153
2017-11-27T09:39:29.000Z,1005.983
2017-11-27T09:49:30.000Z,1005.802
2017-11-27T09:59:30.000Z,1005.664
2017-11-27T10:19:30.000Z,1005.178
2017-11-27T10:29:30.000Z,1005.002
2017-11-27T10:39:30.000Z,1004.455
2017-11-27T10:49:30.000Z,1004.095
2017-11-27T10:59:30.000Z,1003.662
2017-11-27T11:09:30.000Z,1003.327
2017-11-27T11:19:30.000Z,1003.175
2017-11-27T11:29:30.000Z,1003.065
2017-11-27T11:39:30.000Z,1002.913
2017-11-27T11:49:30.000Z,1002.747
2017-11-27T11:59:30.000Z,1002.497
2017-11-27T12:09:30.000Z,1002.443
2017-11-27T12:19:30.000Z,1002.263
2017-11-27T12:29:30.000Z,1002.076
2017-11-27T12:39:30.000Z,1001.922
2017-11-27T12:49:30.000Z,1001.713
2017-11-27T12:59:30.000Z,1001.574
2017-11-27T13:09:30.000Z,1001.334
2017-11-27T13:19:30.000Z,1001.16
2017-11-27T13:29:30.000Z,1001.086
2017-11-27T13:39:30.000Z,1000.965
2017-11-27T13:49:30.000Z,1000.863
2017-11-27T13:59:30.000Z,1000.717
2017-11-27T14:09:30.000Z,1000.613
2017-11-27T14:19:30.000Z,1000.429
2017-11-27T14:29:30.000Z,1000.368
2017-11-27T14:39:30.000Z,1000.351
2017-11-27T14:49:30.000Z,1000.308
2017-11-27T14:59:31.000Z,1000.218
2017-11-27T15:09:30.000Z,1000.163
2017-11-27T15:19:30.000Z,1000.143
2017-11-27T15:29:30.000Z,1000.124
2017-11-27T15:39:30.000Z,999.956
2017-11-27T15:49:30.000Z,999.885
2017-11-27T15:59:30.000Z,999.819
2017-11-27T16:09:30.000Z,999.724
2017-11-27T16:19:30.000Z,999.636
2017-11-27T16:29:30.000Z,999.458
2017-11-27T16:39:30.000Z,999.328
2017-11-27T16:49:30.000Z,999.186
2017-11-27T16:59:30.000Z,999.059
2017-11-27T17:09:30.000Z,998.951
2017-11-27T17:19:30.000Z,998.715
2017-11-27T17:29:31.000Z,998.681
2017-11-27T17:39:30.000Z,998.559
2017-11-27T17:49:30.000Z,998.601
2017-11-27T17:59:31.000Z,998.369
2017-11-27T18:09:32.000Z,998.419
2017-11-27T18:19:31.000Z,998.406
2017-11-27T18:29:31.000Z,998.559
2017-11-27T18:39:31.000Z,998.387
2017-11-27T18:49:31.000Z,998.275
2017-11-27T18:59:32.000Z,998.217
2017-11-27T19:09:31.000Z,998.044
2017-11-27T19:19:31.000Z,998.006
2017-11-27T19:29:31.000Z,998.139
2017-11-27T19:39:31.000Z,998.196
2017-11-27T19:49:31.000Z,998.325
2017-11-27T19:59:31.000Z,998.37
2017-11-27T20:09:31.000Z,998.439
2017-11-27T20:19:31.000Z,998.198
2017-11-27T20:29:31.000Z,998.071
2017-11-27T20:39:31.000Z,997.925
2017-11-27T20:49:31.000Z,997.763
2017-11-27T20:59:34.000Z,997.74
2017-11-27T21:09:31.000Z,997.663
2017-11-27T21:19:31.000Z,997.477
2017-11-27T21:29:31.000Z,997.46
2017-11-27T21:39:31.000Z,997.552
2017-11-27T21:49:31.000Z,997.546
2017-11-27T21:59:31.000Z,997.687
2017-11-27T22:09:31.000Z,997.644
2017-11-27T22:19:31.000Z,997.665
2017-11-27T22:29:31.000Z,997.701
2017-11-27T22:39:31.000Z,997.677
2017-11-27T22:49:31.000Z,997.536
2017-11-27T22:59:31.000Z,997.323
2017-11-27T23:09:31.000Z,997.166
2017-11-27T23:19:31.000Z,997.198
2017-11-27T23:29:31.000Z,997.238
2017-11-27T23:39:31.000Z,997.155
2017-11-27T23:49:31.000Z,997.003
2017-11-27T23:59:31.000Z,996.935
